Time;durP1;ratioP1;P1;durP2;ratioP2;P2;SDS_P1;SDS_P2;PMS_P1;PMS_P2;Temp;Humidity;BMP_temperature;BMP_pressure;BME280_temperature;BME280_humidity;BME280_pressure;Samples;Min_cycle;Max_cycle;Signal;HPM_P1;HPM_P2
2023/11/07 00:00:41;;;;;;;5.13;3.10;;;;;;;;;;2609781;54;20433;-73
2023/11/07 00:03:08;;;;;;;16.30;3.13;;;;;;;;;;2609662;54;20460;-73
2023/11/07 00:05:34;;;;;;;5.07;3.00;;;;;;;;;;2610291;39;20897;-74
2023/11/07 00:08:00;;;;;;;7.30;4.17;;;;;;;;;;2608931;54;20430;-75
2023/11/07 00:10:28;;;;;;;5.10;2.93;;;;;;;;;;2608803;39;20823;-75
2023/11/07 00:12:54;;;;;;;2.83;2.53;;;;;;;;;;2607736;47;20402;-74
2023/11/07 00:15:21;;;;;;;3.67;2.60;;;;;;;;;;2608215;54;20917;-76
2023/11/07 00:17:48;;;;;;;8.60;2.70;;;;;;;;;;2606825;54;20402;-75
2023/11/07 00:20:14;;;;;;;6.03;3.03;;;;;;;;;;2608555;54;20879;-76
2023/11/07 00:22:40;;;;;;;3.80;2.50;;;;;;;;;;2609056;54;20400;-75
2023/11/07 00:25:06;;;;;;;4.63;2.90;;;;;;;;;;2608363;54;20438;-76
2023/11/07 00:27:32;;;;;;;8.43;3.30;;;;;;;;;;2606570;47;21625;-75
2023/11/07 00:29:59;;;;;;;6.27;2.23;;;;;;;;;;2607628;39;20910;-76
2023/11/07 00:32:25;;;;;;;5.90;3.17;;;;;;;;;;2607626;54;20462;-76
2023/11/07 00:34:51;;;;;;;9.50;3.13;;;;;;;;;;2607823;54;20970;-76
2023/11/07 00:37:17;;;;;;;9.20;2.83;;;;;;;;;;2609273;54;20411;-75
2023/11/07 00:39:43;;;;;;;5.97;2.87;;;;;;;;;;2607652;54;20412;-76
2023/11/07 00:42:09;;;;;;;6.20;3.00;;;;;;;;;;2608421;54;21026;-75
2023/11/07 00:44:35;;;;;;;11.30;2.80;;;;;;;;;;2607494;47;20527;-75
2023/11/07 00:47:01;;;;;;;7.80;2.03;;;;;;;;;;2607204;54;20399;-75
2023/11/07 00:49:28;;;;;;;2.60;1.93;;;;;;;;;;2608042;54;20404;-75
2023/11/07 00:51:54;;;;;;;4.90;3.40;;;;;;;;;;2609007;54;21010;-75
2023/11/07 00:54:20;;;;;;;6.17;2.93;;;;;;;;;;2608298;54;20379;-75
2023/11/07 00:56:46;;;;;;;6.10;3.10;;;;;;;;;;2607461;39;21651;-75
2023/11/07 00:59:12;;;;;;;5.40;3.17;;;;;;;;;;2608292;31;20910;-75
2023/11/07 01:01:38;;;;;;;4.70;3.07;;;;;;;;;;2607329;39;20936;-76
2023/11/07 01:04:04;;;;;;;5.43;2.90;;;;;;;;;;2608082;54;21069;-75
2023/11/07 01:06:30;;;;;;;5.47;3.17;;;;;;;;;;2608558;54;20455;-75
2023/11/07 01:08:56;;;;;;;12.17;3.40;;;;;;;;;;2609795;54;20984;-75
2023/11/07 01:11:22;;;;;;;4.07;2.80;;;;;;;;;;2611058;54;20434;-75
2023/11/07 01:13:48;;;;;;;3.97;2.33;;;;;;;;;;2610935;54;20439;-76
2023/11/07 01:16:14;;;;;;;9.20;3.50;;;;;;;;;;2609377;48;20454;-76
2023/11/07 01:18:40;;;;;;;8.53;3.03;;;;;;;;;;2608545;54;21048;-76
2023/11/07 01:21:06;;;;;;;7.50;2.67;;;;;;;;;;2610284;54;20438;-74
2023/11/07 01:23:32;;;;;;;7.67;2.67;;;;;;;;;;2608549;47;20410;-74
2023/11/07 01:26:02;;;;;;;7.27;2.90;;;;;;;;;;2607966;46;20456;-76
2023/11/07 01:28:28;;;;;;;4.07;2.43;;;;;;;;;;2609879;54;20403;-75
2023/11/07 01:30:54;;;;;;;3.57;2.00;;;;;;;;;;2610334;54;20428;-75
2023/11/07 01:33:20;;;;;;;6.03;3.23;;;;;;;;;;2610534;54;20424;-74
2023/11/07 01:35:46;;;;;;;8.20;2.77;;;;;;;;;;2609724;46;20803;-75
2023/11/07 01:38:12;;;;;;;5.33;2.60;;;;;;;;;;2610716;54;20509;-76
2023/11/07 01:40:38;;;;;;;5.57;2.70;;;;;;;;;;2609382;54;20984;-76
2023/11/07 01:43:12;;;;;;;4.20;2.37;;;;;;;;;;2611017;54;20423;-75
2023/11/07 01:45:38;;;;;;;4.10;2.73;;;;;;;;;;2610712;47;21093;-75
2023/11/07 01:48:04;;;;;;;2.67;2.30;;;;;;;;;;2611098;54;20461;-75
2023/11/07 01:50:30;;;;;;;4.13;2.50;;;;;;;;;;2610885;54;20403;-75
2023/11/07 01:52:57;;;;;;;3.17;2.00;;;;;;;;;;2612726;54;20477;-77
2023/11/07 01:55:23;;;;;;;2.83;2.37;;;;;;;;;;2612818;54;21017;-75
2023/11/07 01:57:50;;;;;;;3.20;2.13;;;;;;;;;;2612765;54;20427;-76
2023/11/07 02:00:16;;;;;;;6.27;2.80;;;;;;;;;;2612255;47;20554;-76
2023/11/07 02:02:42;;;;;;;9.03;2.40;;;;;;;;;;2613454;54;20996;-76
2023/11/07 02:05:12;;;;;;;6.63;2.43;;;;;;;;;;2611073;54;20431;-76
2023/11/07 02:07:39;;;;;;;3.20;2.23;;;;;;;;;;2611816;54;20458;-76
2023/11/07 02:10:06;;;;;;;4.50;2.80;;;;;;;;;;2611208;54;20390;-76
2023/11/07 02:12:32;;;;;;;6.93;2.00;;;;;;;;;;2611625;54;20429;-75
2023/11/07 02:14:58;;;;;;;8.00;2.30;;;;;;;;;;2610524;47;20435;-76
2023/11/07 02:17:24;;;;;;;5.90;2.23;;;;;;;;;;2611033;39;20820;-76
2023/11/07 02:19:50;;;;;;;9.13;3.07;;;;;;;;;;2610678;54;20520;-76
2023/11/07 02:22:16;;;;;;;3.83;2.17;;;;;;;;;;2611672;54;20418;-76
2023/11/07 02:24:43;;;;;;;4.27;2.37;;;;;;;;;;2612400;47;20455;-76
2023/11/07 02:27:09;;;;;;;3.80;2.00;;;;;;;;;;2612719;47;20431;-76
2023/11/07 02:29:35;;;;;;;3.77;2.23;;;;;;;;;;2611637;39;20836;-76
2023/11/07 02:32:01;;;;;;;3.10;2.80;;;;;;;;;;2609413;54;22161;-76
2023/11/07 02:34:27;;;;;;;4.40;2.57;;;;;;;;;;2608145;54;20427;-76
2023/11/07 02:36:54;;;;;;;3.80;2.40;;;;;;;;;;2607438;54;21040;-75
2023/11/07 02:39:21;;;;;;;3.60;2.10;;;;;;;;;;2607848;54;21008;-75
2023/11/07 02:41:47;;;;;;;4.87;2.10;;;;;;;;;;2608347;54;20558;-76
2023/11/07 02:44:15;;;;;;;3.07;2.43;;;;;;;;;;2607470;54;20454;-73
2023/11/07 02:46:41;;;;;;;3.30;2.20;;;;;;;;;;2608711;54;21381;-75
2023/11/07 02:49:07;;;;;;;2.50;2.00;;;;;;;;;;2609245;54;20473;-76
2023/11/07 02:51:33;;;;;;;3.60;2.10;;;;;;;;;;2607523;54;20992;-76
2023/11/07 02:54:01;;;;;;;6.80;2.20;;;;;;;;;;2607232;54;20414;-76
2023/11/07 02:56:27;;;;;;;2.33;2.13;;;;;;;;;;2608096;54;20445;-76
2023/11/07 02:58:56;;;;;;;3.63;2.40;;;;;;;;;;2607190;47;20427;-76
2023/11/07 03:01:23;;;;;;;2.73;1.77;;;;;;;;;;2606960;46;20446;-75
2023/11/07 03:03:50;;;;;;;4.10;2.70;;;;;;;;;;2606708;54;20439;-76
2023/11/07 03:06:16;;;;;;;6.13;2.67;;;;;;;;;;2608692;46;20907;-76
2023/11/07 03:08:42;;;;;;;3.63;2.17;;;;;;;;;;2607819;54;20982;-76
2023/11/07 03:11:08;;;;;;;2.77;2.20;;;;;;;;;;2606576;47;20906;-76
2023/11/07 03:13:34;;;;;;;6.53;2.80;;;;;;;;;;2608021;39;20899;-75
2023/11/07 03:16:01;;;;;;;2.87;2.40;;;;;;;;;;2607593;54;21005;-75
2023/11/07 03:18:27;;;;;;;5.00;2.40;;;;;;;;;;2605829;54;20410;-75
2023/11/07 03:20:53;;;;;;;3.37;2.57;;;;;;;;;;2608019;39;20857;-76
2023/11/07 03:23:19;;;;;;;3.70;2.70;;;;;;;;;;2607920;47;20507;-74
2023/11/07 03:25:45;;;;;;;5.40;2.57;;;;;;;;;;2607738;54;20420;-76
2023/11/07 03:28:11;;;;;;;2.87;2.40;;;;;;;;;;2607681;54;20451;-78
2023/11/07 03:30:37;;;;;;;5.40;2.93;;;;;;;;;;2607499;54;20408;-75
2023/11/07 03:33:03;;;;;;;5.60;3.33;;;;;;;;;;2609240;54;20392;-75
2023/11/07 03:35:30;;;;;;;4.83;2.67;;;;;;;;;;2610160;54;20403;-76
2023/11/07 03:37:56;;;;;;;4.20;2.60;;;;;;;;;;2608615;54;20431;-76
2023/11/07 03:40:22;;;;;;;6.33;2.80;;;;;;;;;;2608596;39;20875;-76
2023/11/07 03:42:48;;;;;;;9.50;2.47;;;;;;;;;;2609242;54;20987;-76
2023/11/07 03:45:14;;;;;;;3.03;2.30;;;;;;;;;;2608921;47;20415;-76
2023/11/07 03:47:40;;;;;;;3.27;2.30;;;;;;;;;;2608887;54;20466;-76
2023/11/07 03:50:07;;;;;;;5.30;2.73;;;;;;;;;;2608108;39;20768;-77
2023/11/07 03:52:33;;;;;;;7.30;2.57;;;;;;;;;;2609402;39;20777;-76
2023/11/07 03:54:59;;;;;;;3.63;3.10;;;;;;;;;;2608130;54;20411;-75
2023/11/07 03:57:25;;;;;;;4.33;2.57;;;;;;;;;;2607864;47;20414;-75
2023/11/07 03:59:51;;;;;;;5.77;2.60;;;;;;;;;;2608296;54;20962;-75
2023/11/07 04:02:19;;;;;;;2.77;2.43;;;;;;;;;;2608217;47;20485;-75
2023/11/07 04:04:45;;;;;;;3.13;2.43;;;;;;;;;;2609120;54;20497;-76
2023/11/07 04:07:11;;;;;;;6.30;2.77;;;;;;;;;;2608810;46;20443;-76
2023/11/07 04:09:37;;;;;;;4.27;2.33;;;;;;;;;;2608140;54;20415;-75
2023/11/07 04:12:03;;;;;;;3.37;2.70;;;;;;;;;;2609987;39;20827;-75
2023/11/07 04:14:29;;;;;;;6.60;3.20;;;;;;;;;;2609671;54;21386;-76
2023/11/07 04:16:57;;;;;;;2.60;2.30;;;;;;;;;;2610040;54;20467;-75
2023/11/07 04:19:24;;;;;;;5.00;2.97;;;;;;;;;;2608937;47;20407;-75
2023/11/07 04:21:52;;;;;;;2.83;2.50;;;;;;;;;;2609257;54;20396;-76
2023/11/07 04:24:21;;;;;;;4.60;2.63;;;;;;;;;;2609351;39;20788;-76
2023/11/07 04:26:49;;;;;;;2.87;2.00;;;;;;;;;;2608945;54;20527;-76
2023/11/07 04:29:16;;;;;;;3.20;1.83;;;;;;;;;;2608547;51;20802;-75
2023/11/07 04:31:42;;;;;;;6.60;2.63;;;;;;;;;;2611048;54;20544;-75
2023/11/07 04:34:09;;;;;;;3.10;2.60;;;;;;;;;;2608317;47;20438;-75
2023/11/07 04:36:38;;;;;;;8.30;2.97;;;;;;;;;;2608996;54;20423;-75
2023/11/07 04:39:05;;;;;;;5.80;2.60;;;;;;;;;;2608864;47;20426;-75
2023/11/07 04:41:33;;;;;;;4.23;3.13;;;;;;;;;;2610188;54;20802;-75
2023/11/07 04:44:00;;;;;;;4.43;2.43;;;;;;;;;;2610258;46;20424;-75
2023/11/07 04:46:26;;;;;;;2.63;2.43;;;;;;;;;;2611763;54;20435;-75
2023/11/07 04:48:54;;;;;;;5.33;2.23;;;;;;;;;;2611361;31;20770;-76
2023/11/07 04:51:22;;;;;;;3.40;2.27;;;;;;;;;;2609785;54;20386;-75
2023/11/07 04:53:49;;;;;;;2.90;2.50;;;;;;;;;;2609233;54;21009;-74
2023/11/07 04:56:15;;;;;;;4.80;2.73;;;;;;;;;;2608490;54;20969;-74
2023/11/07 04:58:41;;;;;;;3.67;2.47;;;;;;;;;;2608288;54;20419;-73
2023/11/07 05:01:07;;;;;;;6.20;2.60;;;;;;;;;;2608250;54;21358;-75
2023/11/07 05:03:36;;;;;;;4.30;2.77;;;;;;;;;;2608116;54;20603;-75
2023/11/07 05:06:02;;;;;;;6.07;2.73;;;;;;;;;;2607742;54;20422;-74
2023/11/07 05:08:29;;;;;;;3.07;2.77;;;;;;;;;;2608675;39;20904;-73
2023/11/07 05:10:55;;;;;;;3.03;2.73;;;;;;;;;;2609216;54;20431;-75
2023/11/07 05:13:21;;;;;;;3.53;2.77;;;;;;;;;;2612148;54;20410;-74
2023/11/07 05:15:47;;;;;;;4.60;2.90;;;;;;;;;;2608898;54;20428;-73
2023/11/07 05:18:14;;;;;;;6.27;3.30;;;;;;;;;;2606939;54;20408;-77
2023/11/07 05:20:42;;;;;;;4.83;3.03;;;;;;;;;;2609951;54;20423;-74
2023/11/07 05:23:08;;;;;;;3.40;2.77;;;;;;;;;;2608072;47;20523;-75
2023/11/07 05:25:35;;;;;;;4.53;2.97;;;;;;;;;;2609281;39;21035;-74
2023/11/07 05:28:02;;;;;;;7.33;3.20;;;;;;;;;;2608727;39;20873;-75
2023/11/07 05:30:28;;;;;;;3.50;2.30;;;;;;;;;;2608673;54;20420;-74
2023/11/07 05:32:54;;;;;;;3.10;2.73;;;;;;;;;;2606885;54;20427;-76
2023/11/07 05:35:20;;;;;;;2.90;2.40;;;;;;;;;;2607421;54;20942;-74
2023/11/07 05:37:47;;;;;;;3.17;2.87;;;;;;;;;;2607871;39;20900;-74
2023/11/07 05:40:14;;;;;;;5.50;3.20;;;;;;;;;;2608351;54;20462;-76
2023/11/07 05:42:40;;;;;;;3.30;2.53;;;;;;;;;;2608538;54;20427;-75
2023/11/07 05:45:12;;;;;;;4.20;2.90;;;;;;;;;;2608681;54;20430;-74
2023/11/07 05:47:40;;;;;;;3.87;3.47;;;;;;;;;;2608050;54;20420;-74
2023/11/07 05:50:06;;;;;;;5.60;2.90;;;;;;;;;;2608231;54;20400;-76
2023/11/07 05:52:32;;;;;;;8.63;2.83;;;;;;;;;;2608459;54;20418;-74
2023/11/07 05:55:06;;;;;;;4.60;3.80;;;;;;;;;;2608320;46;20536;-75
2023/11/07 05:57:32;;;;;;;3.20;2.90;;;;;;;;;;2607604;49;20424;-76
2023/11/07 05:59:59;;;;;;;5.10;2.47;;;;;;;;;;2607733;54;20901;-76
2023/11/07 06:02:26;;;;;;;3.13;2.83;;;;;;;;;;2608369;54;20431;-73
2023/11/07 06:04:55;;;;;;;3.67;2.50;;;;;;;;;;2607592;54;20477;-74
2023/11/07 06:07:21;;;;;;;4.40;2.70;;;;;;;;;;2604440;46;20421;-73
2023/11/07 06:09:47;;;;;;;3.97;3.00;;;;;;;;;;2607313;54;20393;-75
2023/11/07 06:12:13;;;;;;;3.67;2.83;;;;;;;;;;2608663;49;21068;-77
2023/11/07 06:14:41;;;;;;;3.53;2.30;;;;;;;;;;2608470;54;20415;-80
2023/11/07 06:17:07;;;;;;;3.67;2.83;;;;;;;;;;2606624;31;20814;-74
2023/11/07 06:19:33;;;;;;;5.53;2.93;;;;;;;;;;2608816;54;20861;-75
2023/11/07 06:21:59;;;;;;;3.90;2.70;;;;;;;;;;2607989;54;20462;-75
2023/11/07 06:24:26;;;;;;;5.30;2.60;;;;;;;;;;2609489;54;20400;-73
2023/11/07 06:26:53;;;;;;;3.03;2.83;;;;;;;;;;2610654;54;20420;-74
2023/11/07 06:29:20;;;;;;;3.47;2.80;;;;;;;;;;2609257;54;20400;-74
2023/11/07 06:31:46;;;;;;;4.67;2.40;;;;;;;;;;2611070;54;20403;-74
2023/11/07 06:34:14;;;;;;;4.23;2.97;;;;;;;;;;2609006;54;20438;-73
2023/11/07 06:36:41;;;;;;;6.47;2.77;;;;;;;;;;2609946;54;20511;-77
2023/11/07 06:39:07;;;;;;;6.90;2.93;;;;;;;;;;2609747;54;20975;-75
2023/11/07 06:41:34;;;;;;;6.63;3.20;;;;;;;;;;2610046;54;20520;-74
2023/11/07 06:44:00;;;;;;;3.50;2.40;;;;;;;;;;2609901;54;20403;-76
2023/11/07 06:46:26;;;;;;;3.20;2.80;;;;;;;;;;2610181;54;20445;-75
2023/11/07 06:48:52;;;;;;;7.40;2.87;;;;;;;;;;2610726;54;20977;-74
2023/11/07 06:51:18;;;;;;;4.17;3.20;;;;;;;;;;2611123;54;20454;-74
2023/11/07 06:53:44;;;;;;;4.27;2.30;;;;;;;;;;2610930;54;20431;-75
2023/11/07 06:56:12;;;;;;;2.87;2.27;;;;;;;;;;2611125;54;20438;-74
2023/11/07 06:58:39;;;;;;;5.30;3.13;;;;;;;;;;2610188;39;20476;-76
2023/11/07 07:01:05;;;;;;;4.07;2.73;;;;;;;;;;2609004;47;20515;-75
2023/11/07 07:03:31;;;;;;;5.00;2.50;;;;;;;;;;2609550;54;20446;-76
2023/11/07 07:05:59;;;;;;;3.07;2.23;;;;;;;;;;2610625;39;20869;-74
2023/11/07 07:08:25;;;;;;;6.47;2.27;;;;;;;;;;2611551;39;20670;-75
2023/11/07 07:10:51;;;;;;;7.77;3.23;;;;;;;;;;2611050;47;20454;-75
2023/11/07 07:13:19;;;;;;;4.50;3.03;;;;;;;;;;2610349;47;20434;-75
2023/11/07 07:15:46;;;;;;;2.33;2.13;;;;;;;;;;2612048;31;20908;-75
2023/11/07 07:18:18;;;;;;;2.80;2.50;;;;;;;;;;2610465;54;20427;-74
2023/11/07 07:20:45;;;;;;;2.73;2.10;;;;;;;;;;2611307;54;20530;-74
2023/11/07 07:23:11;;;;;;;4.80;3.43;;;;;;;;;;2610925;54;20535;-74
2023/11/07 07:25:37;;;;;;;2.30;2.10;;;;;;;;;;2611192;54;20430;-75
2023/11/07 07:28:07;;;;;;;3.30;2.50;;;;;;;;;;2610481;54;20963;-76
2023/11/07 07:30:37;;;;;;;2.27;2.00;;;;;;;;;;2610232;54;20442;-75
2023/11/07 07:33:06;;;;;;;4.83;2.83;;;;;;;;;;2610356;47;20411;-75
2023/11/07 07:35:32;;;;;;;6.47;3.20;;;;;;;;;;2610465;54;20909;-76
2023/11/07 07:38:00;;;;;;;5.53;3.13;;;;;;;;;;2611456;54;20427;-74
2023/11/07 07:40:29;;;;;;;2.97;2.67;;;;;;;;;;2610882;54;20427;-76
2023/11/07 07:42:58;;;;;;;3.77;2.43;;;;;;;;;;2611978;47;20439;-76
2023/11/07 07:45:24;;;;;;;3.30;2.67;;;;;;;;;;2612398;54;20985;-76
2023/11/07 07:47:50;;;;;;;3.13;2.60;;;;;;;;;;2612600;39;20812;-75
2023/11/07 07:50:18;;;;;;;3.87;2.70;;;;;;;;;;2613018;39;21093;-76
2023/11/07 07:52:44;;;;;;;4.50;2.80;;;;;;;;;;2612379;39;20814;-76
2023/11/07 07:55:10;;;;;;;3.10;2.80;;;;;;;;;;2613063;39;20878;-76
2023/11/07 07:57:37;;;;;;;3.37;2.63;;;;;;;;;;2613062;54;20526;-75
2023/11/07 08:00:11;;;;;;;4.40;2.50;;;;;;;;;;2611853;54;20420;-76
2023/11/07 08:02:38;;;;;;;2.90;2.60;;;;;;;;;;2611831;54;20912;-76
2023/11/07 08:05:06;;;;;;;3.47;2.40;;;;;;;;;;2611761;54;20467;-76
2023/11/07 08:07:33;;;;;;;3.57;2.40;;;;;;;;;;2612861;54;20410;-75
2023/11/07 08:09:59;;;;;;;3.27;2.97;;;;;;;;;;2613360;54;20514;-75
2023/11/07 08:12:25;;;;;;;3.27;2.83;;;;;;;;;;2614003;54;20538;-75
2023/11/07 08:14:51;;;;;;;3.00;2.50;;;;;;;;;;2613223;54;20419;-76
2023/11/07 08:17:18;;;;;;;2.50;2.30;;;;;;;;;;2614158;54;21287;-76
2023/11/07 08:19:44;;;;;;;3.00;2.33;;;;;;;;;;2613825;54;20431;-75
2023/11/07 08:22:12;;;;;;;3.93;2.53;;;;;;;;;;2613483;54;20427;-76
2023/11/07 08:24:38;;;;;;;2.80;2.60;;;;;;;;;;2613072;54;20505;-76
2023/11/07 08:27:04;;;;;;;2.40;2.20;;;;;;;;;;2612581;54;20406;-76
2023/11/07 08:29:31;;;;;;;4.70;2.50;;;;;;;;;;2612601;54;20438;-76
2023/11/07 08:31:57;;;;;;;2.97;2.53;;;;;;;;;;2613390;54;20519;-75
2023/11/07 08:34:24;;;;;;;2.70;2.50;;;;;;;;;;2613831;54;20420;-76
2023/11/07 08:36:52;;;;;;;1.90;1.80;;;;;;;;;;2612551;54;20457;-75
2023/11/07 08:39:24;;;;;;;3.30;2.60;;;;;;;;;;2613948;54;20453;-76
2023/11/07 08:41:54;;;;;;;4.57;2.40;;;;;;;;;;2612758;39;21630;-76
2023/11/07 08:44:21;;;;;;;5.70;2.90;;;;;;;;;;2613656;54;21083;-79
2023/11/07 08:46:47;;;;;;;3.63;2.37;;;;;;;;;;2612711;54;20422;-76
2023/11/07 08:49:16;;;;;;;2.97;2.23;;;;;;;;;;2613748;46;20442;-76
2023/11/07 08:51:42;;;;;;;2.70;2.50;;;;;;;;;;2612896;54;20391;-75
2023/11/07 08:54:08;;;;;;;2.60;2.40;;;;;;;;;;2612091;54;20554;-75
2023/11/07 08:56:34;;;;;;;3.50;2.30;;;;;;;;;;2612073;54;20388;-74
2023/11/07 08:59:01;;;;;;;5.97;3.03;;;;;;;;;;2612287;54;20430;-74
2023/11/07 09:01:27;;;;;;;2.60;2.40;;;;;;;;;;2611144;39;20801;-74
2023/11/07 09:03:53;;;;;;;2.90;2.37;;;;;;;;;;2611920;54;20575;-74
2023/11/07 09:06:20;;;;;;;7.60;3.13;;;;;;;;;;2611455;54;20403;-74
2023/11/07 09:08:46;;;;;;;3.33;2.87;;;;;;;;;;2611772;54;20922;-73
2023/11/07 09:11:12;;;;;;;2.97;2.70;;;;;;;;;;2612084;54;20404;-73
2023/11/07 09:13:39;;;;;;;2.80;2.60;;;;;;;;;;2612075;54;20395;-74
2023/11/07 09:16:08;;;;;;;4.40;2.60;;;;;;;;;;2611160;54;20985;-75
2023/11/07 09:18:35;;;;;;;4.87;2.60;;;;;;;;;;2612106;54;20396;-74
2023/11/07 09:21:01;;;;;;;3.73;3.23;;;;;;;;;;2612071;54;20495;-75
2023/11/07 09:23:27;;;;;;;2.83;2.63;;;;;;;;;;2611619;49;20958;-75
2023/11/07 09:25:53;;;;;;;2.80;2.60;;;;;;;;;;2611322;54;20855;-73
2023/11/07 09:28:19;;;;;;;3.87;2.67;;;;;;;;;;2611364;47;20436;-74
2023/11/07 09:30:46;;;;;;;2.60;2.40;;;;;;;;;;2611792;54;20431;-75
2023/11/07 09:33:14;;;;;;;4.77;3.43;;;;;;;;;;2611326;54;20407;-73
2023/11/07 09:35:40;;;;;;;3.30;3.00;;;;;;;;;;2611640;50;20966;-76
2023/11/07 09:38:06;;;;;;;3.30;2.60;;;;;;;;;;2611405;47;20459;-74
2023/11/07 09:40:33;;;;;;;5.87;2.97;;;;;;;;;;2611366;39;21180;-74
2023/11/07 09:43:01;;;;;;;3.10;2.57;;;;;;;;;;2611777;54;20420;-74
2023/11/07 09:45:30;;;;;;;2.70;2.50;;;;;;;;;;2611978;54;20419;-74
2023/11/07 09:47:56;;;;;;;7.20;3.57;;;;;;;;;;2611981;54;20399;-74
2023/11/07 09:50:24;;;;;;;3.10;2.37;;;;;;;;;;2612403;39;20813;-73
2023/11/07 09:52:50;;;;;;;2.73;2.50;;;;;;;;;;2611077;54;21024;-74
2023/11/07 09:55:17;;;;;;;3.83;3.53;;;;;;;;;;2611559;54;20504;-74
2023/11/07 09:57:47;;;;;;;4.80;2.67;;;;;;;;;;2611729;54;20435;-73
2023/11/07 10:00:13;;;;;;;4.70;3.10;;;;;;;;;;2611370;39;20742;-71
2023/11/07 10:02:40;;;;;;;3.50;3.03;;;;;;;;;;2610329;54;20395;-76
2023/11/07 10:05:07;;;;;;;3.37;3.17;;;;;;;;;;2611236;54;20548;-76
2023/11/07 10:07:33;;;;;;;5.40;3.57;;;;;;;;;;2611452;54;20435;-76
2023/11/07 10:10:05;;;;;;;6.93;3.90;;;;;;;;;;2611707;54;20459;-75
2023/11/07 10:12:32;;;;;;;5.70;4.93;;;;;;;;;;2610719;54;20411;-76
2023/11/07 10:14:58;;;;;;;4.20;3.80;;;;;;;;;;2611146;54;20496;-76
2023/11/07 10:17:24;;;;;;;6.23;3.90;;;;;;;;;;2610520;54;20463;-75
2023/11/07 10:20:05;;;;;;;3.87;3.47;;;;;;;;;;2611709;39;20993;-75
2023/11/07 10:22:44;;;;;;;4.10;3.70;;;;;;;;;;2611245;54;20495;-76
2023/11/07 10:25:26;;;;;;;4.40;4.10;;;;;;;;;;2611616;54;20406;-76
2023/11/07 10:27:55;;;;;;;3.53;3.10;;;;;;;;;;2610791;54;20423;-76
2023/11/07 10:30:21;;;;;;;4.13;3.40;;;;;;;;;;2611772;54;21063;-77
2023/11/07 10:32:49;;;;;;;5.77;4.10;;;;;;;;;;2611675;54;20431;-76
2023/11/07 10:35:15;;;;;;;3.90;3.60;;;;;;;;;;2610930;54;20435;-77
2023/11/07 10:37:41;;;;;;;4.90;3.40;;;;;;;;;;2611174;39;20797;-76
2023/11/07 10:40:07;;;;;;;4.70;4.30;;;;;;;;;;2611371;39;20866;-75
2023/11/07 10:42:34;;;;;;;5.70;4.27;;;;;;;;;;2611284;47;20986;-76
2023/11/07 10:45:09;;;;;;;5.70;4.10;;;;;;;;;;2612802;54;20436;-75
2023/11/07 10:47:37;;;;;;;4.27;4.07;;;;;;;;;;2612401;46;20475;-76
2023/11/07 10:50:04;;;;;;;6.07;4.60;;;;;;;;;;2611630;47;20916;-76
2023/11/07 10:52:30;;;;;;;5.73;4.53;;;;;;;;;;2611245;54;20541;-76
2023/11/07 10:54:56;;;;;;;5.13;4.70;;;;;;;;;;2611796;47;20466;-75
2023/11/07 10:57:29;;;;;;;4.60;4.30;;;;;;;;;;2611489;47;20424;-76
2023/11/07 11:00:18;;;;;;;4.30;4.00;;;;;;;;;;2612576;54;20478;-77
2023/11/07 11:02:47;;;;;;;4.50;4.10;;;;;;;;;;2612775;54;20408;-75
2023/11/07 11:05:15;;;;;;;4.33;4.03;;;;;;;;;;2611516;54;20458;-76
2023/11/07 11:07:44;;;;;;;5.03;3.97;;;;;;;;;;2611511;39;20814;-76
2023/11/07 11:10:11;;;;;;;4.27;3.97;;;;;;;;;;2612247;54;20431;-75
2023/11/07 11:12:42;;;;;;;10.97;5.40;;;;;;;;;;2612137;39;20816;-74
2023/11/07 11:15:12;;;;;;;7.30;4.40;;;;;;;;;;2611685;54;20953;-75
2023/11/07 11:17:49;;;;;;;6.07;5.20;;;;;;;;;;2611239;54;20446;-75
2023/11/07 11:20:24;;;;;;;13.70;5.00;;;;;;;;;;2611105;54;20550;-76
2023/11/07 11:22:59;;;;;;;4.77;4.13;;;;;;;;;;2610977;39;20814;-74
2023/11/07 11:25:35;;;;;;;4.90;4.50;;;;;;;;;;2611462;54;20408;-75
2023/11/07 11:28:01;;;;;;;5.43;5.07;;;;;;;;;;2611116;54;21264;-76
2023/11/07 11:30:31;;;;;;;6.07;5.07;;;;;;;;;;2611242;54;20801;-75
2023/11/07 11:33:07;;;;;;;4.90;4.53;;;;;;;;;;2610708;54;20505;-75
2023/11/07 11:35:35;;;;;;;5.27;4.80;;;;;;;;;;2610545;54;20423;-75
2023/11/07 11:38:11;;;;;;;6.40;5.27;;;;;;;;;;2610914;39;20903;-76
2023/11/07 11:40:49;;;;;;;5.40;5.00;;;;;;;;;;2611710;39;20759;-75
2023/11/07 11:43:16;;;;;;;6.07;4.97;;;;;;;;;;2611346;47;21003;-75
2023/11/07 11:45:44;;;;;;;6.27;5.87;;;;;;;;;;2611320;47;20962;-76
2023/11/07 11:48:10;;;;;;;5.47;5.17;;;;;;;;;;2612359;54;20406;-74
2023/11/07 11:50:37;;;;;;;6.20;5.90;;;;;;;;;;2611057;47;20998;-76
2023/11/07 11:53:05;;;;;;;6.73;6.20;;;;;;;;;;2611378;47;20438;-76
2023/11/07 11:55:50;;;;;;;5.50;5.10;;;;;;;;;;2612496;54;20427;-76
2023/11/07 11:58:16;;;;;;;4.83;4.53;;;;;;;;;;2611466;47;20473;-76
2023/11/07 12:00:44;;;;;;;5.53;5.23;;;;;;;;;;2611644;54;20968;-76
2023/11/07 12:03:15;;;;;;;5.90;5.50;;;;;;;;;;2611883;54;20379;-75
2023/11/07 12:05:42;;;;;;;6.00;5.30;;;;;;;;;;2611093;47;20412;-75
2023/11/07 12:08:43;;;;;;;4.77;4.47;;;;;;;;;;2611222;54;20431;-74
2023/11/07 12:11:10;;;;;;;5.07;4.57;;;;;;;;;;2610883;47;21131;-75
2023/11/07 12:13:37;;;;;;;5.00;4.33;;;;;;;;;;2610529;47;20526;-75
2023/11/07 12:16:13;;;;;;;4.30;4.00;;;;;;;;;;2610298;54;21045;-75
2023/11/07 12:18:41;;;;;;;4.10;3.80;;;;;;;;;;2610375;54;20756;-74
2023/11/07 12:21:08;;;;;;;12.70;4.40;;;;;;;;;;2610937;54;20410;-75
2023/11/07 12:23:35;;;;;;;4.00;3.70;;;;;;;;;;2608540;47;20454;-76
2023/11/07 12:26:01;;;;;;;4.93;4.63;;;;;;;;;;2610557;54;20439;-75
2023/11/07 12:28:27;;;;;;;4.57;4.27;;;;;;;;;;2610751;54;20400;-76
2023/11/07 12:30:56;;;;;;;4.80;4.50;;;;;;;;;;2608959;47;20451;-76
2023/11/07 12:33:22;;;;;;;4.93;4.53;;;;;;;;;;2610523;54;20400;-76
2023/11/07 12:35:54;;;;;;;4.90;4.40;;;;;;;;;;2610093;47;21052;-76
2023/11/07 12:38:20;;;;;;;4.50;4.20;;;;;;;;;;2610163;47;20527;-75
2023/11/07 12:40:47;;;;;;;4.60;4.10;;;;;;;;;;2608751;54;20420;-76
2023/11/07 12:43:15;;;;;;;4.67;4.37;;;;;;;;;;2610282;47;20435;-76
2023/11/07 12:45:45;;;;;;;4.77;4.47;;;;;;;;;;2609919;47;21542;-76
2023/11/07 12:48:12;;;;;;;4.33;3.93;;;;;;;;;;2610353;47;20454;-75
2023/11/07 12:50:43;;;;;;;5.50;4.07;;;;;;;;;;2610686;54;20435;-75
2023/11/07 12:53:09;;;;;;;4.50;4.20;;;;;;;;;;2610660;54;20451;-77
2023/11/07 12:55:37;;;;;;;5.70;4.67;;;;;;;;;;2611983;54;20424;-76
2023/11/07 12:58:04;;;;;;;4.20;3.83;;;;;;;;;;2612076;54;20396;-76
2023/11/07 13:00:30;;;;;;;4.80;4.40;;;;;;;;;;2611662;54;20419;-76
2023/11/07 13:02:57;;;;;;;4.63;4.33;;;;;;;;;;2611640;54;20436;-76
2023/11/07 13:05:27;;;;;;;5.00;4.60;;;;;;;;;;2611470;54;20984;-76
2023/11/07 13:07:53;;;;;;;4.57;4.27;;;;;;;;;;2610525;54;20424;-76
2023/11/07 13:10:23;;;;;;;5.60;4.30;;;;;;;;;;2611484;54;20435;-76
2023/11/07 13:12:50;;;;;;;4.70;4.50;;;;;;;;;;2611654;54;20446;-76
2023/11/07 13:15:16;;;;;;;5.60;5.20;;;;;;;;;;2611728;54;20996;-76
2023/11/07 13:17:42;;;;;;;6.17;4.70;;;;;;;;;;2611079;54;20419;-76
2023/11/07 13:20:11;;;;;;;4.60;4.30;;;;;;;;;;2609820;54;20985;-75
2023/11/07 13:22:37;;;;;;;4.90;4.50;;;;;;;;;;2611578;54;21030;-77
2023/11/07 13:25:06;;;;;;;5.80;5.40;;;;;;;;;;2610640;54;20450;-76
2023/11/07 13:27:33;;;;;;;5.20;4.90;;;;;;;;;;2611466;39;20900;-77
2023/11/07 13:30:01;;;;;;;5.47;4.87;;;;;;;;;;2610302;54;20454;-76
2023/11/07 13:32:29;;;;;;;5.57;5.07;;;;;;;;;;2611669;54;20428;-75
2023/11/07 13:34:56;;;;;;;4.80;4.50;;;;;;;;;;2611043;54;20419;-76
2023/11/07 13:37:23;;;;;;;4.33;4.03;;;;;;;;;;2611960;54;20427;-75
2023/11/07 13:39:49;;;;;;;5.27;4.83;;;;;;;;;;2610960;54;20392;-76
2023/11/07 13:42:15;;;;;;;6.20;5.80;;;;;;;;;;2609531;47;20431;-76
2023/11/07 13:44:41;;;;;;;5.57;5.27;;;;;;;;;;2610941;54;20396;-75
2023/11/07 13:47:08;;;;;;;6.50;5.20;;;;;;;;;;2610400;54;20423;-76
2023/11/07 13:49:34;;;;;;;6.90;5.07;;;;;;;;;;2611003;54;20427;-77
2023/11/07 13:52:00;;;;;;;5.30;4.60;;;;;;;;;;2610233;47;20430;-75
2023/11/07 13:54:26;;;;;;;5.60;5.00;;;;;;;;;;2610903;54;20407;-77
2023/11/07 13:56:52;;;;;;;4.80;4.50;;;;;;;;;;2611781;54;20427;-76
2023/11/07 13:59:19;;;;;;;4.73;4.43;;;;;;;;;;2611622;46;20439;-76
2023/11/07 14:01:45;;;;;;;5.77;5.17;;;;;;;;;;2611117;54;20419;-77
2023/11/07 14:04:11;;;;;;;5.70;5.40;;;;;;;;;;2609833;47;20471;-76
2023/11/07 14:06:37;;;;;;;5.30;4.90;;;;;;;;;;2606260;54;20455;-77
2023/11/07 14:09:04;;;;;;;6.20;5.67;;;;;;;;;;2610775;54;20434;-77
2023/11/07 14:11:30;;;;;;;4.97;4.67;;;;;;;;;;2611453;54;20482;-76
2023/11/07 14:13:56;;;;;;;5.07;4.77;;;;;;;;;;2612424;47;20435;-76
2023/11/07 14:16:25;;;;;;;5.27;4.77;;;;;;;;;;2611010;54;20985;-77
2023/11/07 14:18:51;;;;;;;9.70;4.53;;;;;;;;;;2611781;54;21245;-78
2023/11/07 14:21:18;;;;;;;4.63;4.33;;;;;;;;;;2613036;54;20431;-77
2023/11/07 14:23:46;;;;;;;4.53;4.13;;;;;;;;;;2612014;54;20450;-77
2023/11/07 14:26:14;;;;;;;5.67;5.30;;;;;;;;;;2612659;54;20438;-77
2023/11/07 14:28:42;;;;;;;4.43;4.10;;;;;;;;;;2612550;54;20454;-77
2023/11/07 14:31:09;;;;;;;4.90;3.90;;;;;;;;;;2613356;54;20431;-77
2023/11/07 14:33:37;;;;;;;4.67;4.27;;;;;;;;;;2611672;54;20433;-78
2023/11/07 14:36:07;;;;;;;7.00;3.73;;;;;;;;;;2611598;54;20408;-76
2023/11/07 14:38:34;;;;;;;4.43;4.13;;;;;;;;;;2611918;51;20416;-77
2023/11/07 14:41:06;;;;;;;4.50;4.10;;;;;;;;;;2612558;39;20989;-79
2023/11/07 14:43:33;;;;;;;8.13;4.20;;;;;;;;;;2611150;31;20871;-77